New York, New York
Traffic Map
Current Weather Conditions
New York, New York
Clear
Clear

Feels Like: -2°
Wind Chill: -2° Ceiling: Unl
Heat Index: Visibility: 10mi
Dew Point: -6° Wind: 10mph
Humidity: 55% Direction: 240° (WSW)
Pressure: 30.02in Gusts: 20mph
Raw Report DataKNYC 110151Z AUTO 24009G17KT 200V270 10SM CLR 02/M06 A3002 RMK AO2 SLP159 T00221061 $
Traffic Incident Summary
Active as of:
Severity:
Category:
InformationThere was an issue retrieving the traffic information for this location. Please try a different location or try again shortly.
Advertisements